Nearby METAR Reports

 

KSJC - San Jose, California, USA
Distance from station: NE 9mi, 14km
Updated: Mon, 21-Sep-2020 2:53am PDT
Clear
Clear
 Wind from calm
Wind: Calm
Temperature: 64°F , 18°C
Dew Point: 57°F , 14°C
Humidity: 78%
Barometer: 29.87 inHg , 1011.5 hPa
Clouds: Clear
Visibility: 9 miles , 14 km
2020/09/21 09:53 KSJC 210953Z AUTO 00000KT 9SM CLR 18/14 A2987 RMK AO2 SLP115 T01830144
KNUQ - Moffett Nas/Mtn, California, USA
Distance from station: N 9mi, 14km
Updated: Mon, 21-Sep-2020 3:15am PDT
Clear
Clear
 Wind from calm
Wind: Calm
Temperature: 63°F , 17°C
Dew Point: 59°F , 15°C
Humidity: 88%
Barometer: 29.87 inHg , 1011.5 hPa
Clouds: Clear
Visibility: 10 miles , 16 km
2020/09/21 10:15 KNUQ 211015Z AUTO 00000KT 10SM CLR 17/15 A2987 RMK AO2
 
KPAO - Palo Alto, California, USA
Distance from station: NNW 14mi, 23km
Updated: Sun, 20-Sep-2020 6:47pm PDT
NOT Current
Clear
Clear
 Wind from NNW
Wind: NNW 12 mph , 19 km/h
Temperature: 70°F , 21°C
Dew Point: 61°F , 16°C
Humidity: 73%
Barometer: 29.85 inHg , 1010.8 hPa
Clouds: Clear
Visibility: 10 miles , 16 km
2020/09/21 01:47 KPAO 210147Z 33010KT 10SM SKC 21/16 A2985 RMK LAST
KRHV - San Jose/Reid, California, USA
Distance from station: ENE 12mi, 19km
Updated: Sun, 20-Sep-2020 9:47pm PDT
NOT Current
Clear
Clear
 Wind from calm
Wind: Calm
Temperature: 72°F , 22°C
Dew Point: 55°F , 13°C
Humidity: 57%
Barometer: 29.89 inHg , 1012.2 hPa
Clouds: Clear
Visibility: 10 miles , 16 km
2020/09/21 04:47 KRHV 210447Z 00000KT 10SM SKC 22/13 A2989 RMK LAST
 
KOAK - Oakland, California, USA
Distance from station: NNW 31mi, 50km
Updated: Mon, 21-Sep-2020 2:53am PDT
Few Clouds
Few Clouds
 Wind from NW
Wind: NW 9 mph , 15 km/h
Temperature: 63°F , 17°C
Dew Point: 57°F , 14°C
Humidity: 83%
Barometer: 29.88 inHg , 1011.9 hPa
Clouds: Few Clouds
Visibility: 9 miles , 14 km
Cloud details: Few Clouds 1000 ft
Few Clouds 14000 ft
2020/09/21 09:53 KOAK 210953Z 31008KT 9SM FEW010 FEW140 17/14 A2988 RMK AO2 SLP119 T01670139
KSQL - San Carlos Airpo, California, USA
Distance from station: NW 21mi, 34km
Updated: Mon, 21-Sep-2020 3:15am PDT
Clear
Clear
 Wind from NW
Wind: NW 5 mph , 7 km/h
Temperature: 61°F , 16°C
Dew Point: 55°F , 13°C
Humidity: 83%
Barometer: 29.88 inHg , 1011.9 hPa
Clouds: Clear
Visibility: 10 miles , 16 km
2020/09/21 10:15 KSQL 211015Z AUTO 31004KT 10SM CLR 16/13 A2988 RMK AO2
 
KSFO - San Francisco, California, USA
Distance from station: NW 30mi, 49km
Updated: Mon, 21-Sep-2020 2:56am PDT
Few Clouds
Few Clouds
 Wind from WNW
Wind: WNW 12 mph , 19 km/h
Temperature: 59°F , 15°C
Dew Point: 55°F , 13°C
Humidity: 88%
Barometer: 29.87 inHg , 1011.5 hPa
Clouds: Few Clouds
Visibility: 10 miles , 16 km
Cloud details: Few Clouds 600 ft
2020/09/21 09:56 KSFO 210956Z 30010KT 10SM FEW006 15/13 A2987 RMK AO2 SLP116 T01500128
KE16 - San Martin, California, USA
Distance from station: ESE 27mi, 43km
Updated: Mon, 21-Sep-2020 3:10am PDT
Mostly cloudy
Mostly cloudy
 Wind from calm
Wind: Calm
Temperature: 57°F , 14°C
Dew Point: 50°F , 10°C
Humidity: 77%
Barometer: 29.90 inHg , 1012.5 hPa
Clouds: Mostly cloudy
Visibility: 10 miles , 16 km
Cloud details: Partly cloudy 3300 ft
Partly cloudy 4100 ft
Mostly cloudy 5000 ft
2020/09/21 10:10 KE16 211010Z AUTO 00000KT 10SM SCT033 SCT041 BKN050 14/10 A2990 RMK AO2 PWINO PNO
 
KWVI - Watsonville, California, USA
Distance from station: SSE 27mi, 44km
Updated: Mon, 21-Sep-2020 2:53am PDT
Fog, Overcast
Fog, Overcast
 Wind from calm
Wind: Calm
Temperature: 55°F , 13°C
Dew Point: 55°F , 13°C
Humidity: 100%
Barometer: 29.90 inHg , 1012.5 hPa
Summary: Fog
Clouds: Overcast
Visibility: 1/4 mile , 0.4 km
Cloud details: Overcast 200 ft
2020/09/21 09:53 KWVI 210953Z AUTO 00000KT 1/4SM FG VV002 13/13 A2990 RMK AO2 SLP124 T01280128
KHAF - Half Moon Bay, California, USA
Distance from station: WNW 31mi, 50km
Updated: Mon, 21-Sep-2020 3:15am PDT
Mist, Overcast
Mist, Overcast
 Wind from ENE
Wind: ENE 6 mph , 9 km/h
Temperature: 55°F , 13°C
Dew Point: 55°F , 13°C
Humidity: 100%
Barometer: 29.91 inHg , 1012.9 hPa
Summary: Mist
Clouds: Overcast
Visibility: 1 3/4 miles , 2.8 km
Cloud details: Overcast 300 ft
2020/09/21 10:15 KHAF 211015Z AUTO 07005KT 1 3/4SM BR OVC003 13/13 A2991 RMK AO2
 
KHWD - Hayward, California, USA
Distance from station: N 28mi, 44km
Updated: Mon, 21-Sep-2020 2:54am PDT
Clear
Clear
 Wind from NW
Wind: NW 3 mph , 6 km/h
Temperature: 63°F , 17°C
Dew Point: 55°F , 13°C
Humidity: 77%
Barometer: 29.87 inHg , 1011.5 hPa
Clouds: Clear
Visibility: 9 miles , 14 km
2020/09/21 09:54 KHWD 210954Z 32003KT 9SM CLR 17/13 A2987 RMK AO2 SLP125 T01670133
KLVK - Livermore, California, USA
Distance from station: NNE 31mi, 51km
Updated: Mon, 21-Sep-2020 2:53am PDT
Clear
Clear
 Wind from calm
Wind: Calm
Temperature: 61°F , 16°C
Dew Point: 46°F , 8°C
Humidity: 59%
Barometer: 29.87 inHg , 1011.5 hPa
Clouds: Clear
Visibility: 8 miles , 13 km
2020/09/21 09:53 KLVK 210953Z AUTO 00000KT 8SM CLR 16/08 A2987 RMK AO2 SLP109 T01610078